Time;durP1;ratioP1;P1;durP2;ratioP2;P2;SDS_P1;SDS_P2;PMS_P1;PMS_P2;Temp;Humidity;BMP_temperature;BMP_pressure;BME280_temperature;BME280_humidity;BME280_pressure;Samples;Min_cycle;Max_cycle;Signal;HPM_P1;HPM_P2
2023/03/31 00:01:09;;;;;;;25.08;7.65;;;13.10;99.90;;;12.99;91.21;100071.09;4994268;28;20046;-70
2023/03/31 00:03:42;;;;;;;21.92;7.60;;;13.10;99.90;;;13.12;91.94;100069.91;4994184;28;20156;-70
2023/03/31 00:06:16;;;;;;;23.85;7.35;;;13.00;99.90;;;13.27;91.51;100096.03;4993881;28;20046;-70
2023/03/31 00:08:50;;;;;;;21.08;7.32;;;13.00;99.90;;;13.27;92.15;100080.09;4993695;28;20042;-70
2023/03/31 00:11:21;;;;;;;20.70;6.45;;;13.00;99.90;;;13.03;93.16;100075.44;4993767;28;20105;-70
2023/03/31 00:13:50;;;;;;;16.35;6.30;;;12.90;99.90;;;12.93;94.31;100075.72;4993843;28;20047;-70
2023/03/31 00:16:18;;;;;;;24.17;6.38;;;12.80;99.90;;;12.87;95.22;100062.59;4994019;28;20722;-70
2023/03/31 00:18:49;;;;;;;27.23;7.50;;;12.70;99.90;;;12.82;95.80;100070.66;4993974;28;20043;-70
2023/03/31 00:21:32;;;;;;;18.90;6.85;;;12.70;99.90;;;12.71;96.80;100067.44;4992650;28;20488;-70
2023/03/31 00:24:03;;;;;;;17.52;6.35;;;12.60;99.90;;;12.55;97.23;100032.47;4993588;28;20053;-70
2023/03/31 00:26:35;;;;;;;19.50;6.15;;;12.50;99.90;;;12.75;97.75;100052.28;4994145;28;20051;-70
2023/03/31 00:29:05;;;;;;;19.75;6.97;;;12.50;99.90;;;12.73;97.65;100038.19;4994071;28;20121;-70
2023/03/31 00:31:35;;;;;;;19.48;6.80;;;12.60;99.90;;;12.68;97.16;100009.13;4993584;28;20073;-70
2023/03/31 00:34:03;;;;;;;19.98;6.88;;;12.70;99.90;;;12.96;97.37;100041.09;4993532;28;20073;-72
2023/03/31 00:36:35;;;;;;;20.85;6.97;;;12.70;99.90;;;12.99;97.74;100036.56;4993442;28;20112;-70
2023/03/31 00:39:07;;;;;;;16.92;6.45;;;12.80;99.90;;;13.01;97.97;100021.47;4992701;28;20100;-70
2023/03/31 00:41:39;;;;;;;20.42;6.18;;;12.80;99.90;;;13.15;97.89;100014.03;4993637;28;20057;-70
2023/03/31 00:44:13;;;;;;;16.55;6.25;;;12.90;99.90;;;13.11;97.58;100035.41;4992459;28;20057;-70
2023/03/31 00:46:48;;;;;;;18.08;6.32;;;12.90;99.90;;;13.21;97.66;100012.97;4993592;28;20046;-70
2023/03/31 00:49:23;;;;;;;17.30;5.75;;;13.00;99.90;;;13.21;97.71;100000.59;4993292;28;20506;-69
2023/03/31 00:51:55;;;;;;;18.35;6.65;;;13.00;99.90;;;13.29;97.50;99993.28;4993569;28;20068;-69
2023/03/31 00:54:26;;;;;;;16.95;6.50;;;13.00;99.90;;;13.29;97.28;99993.28;4993514;28;20101;-70
2023/03/31 00:56:57;;;;;;;;;;;13.10;99.90;;;13.32;97.01;99981.66;4993650;28;20042;-70
2023/03/31 00:59:30;;;;;;;17.08;5.97;;;13.10;99.90;;;13.27;97.59;99972.97;4993529;28;19925;-70
2023/03/31 01:02:02;;;;;;;22.83;7.00;;;13.10;99.90;;;13.32;97.98;99987.84;4993389;28;20042;-70
2023/03/31 01:04:35;;;;;;;19.70;6.40;;;13.10;99.90;;;13.29;98.55;99969.38;4991768;28;20047;-70
2023/03/31 01:07:11;;;;;;;15.30;6.70;;;13.00;99.90;;;13.16;99.11;99975.94;4992096;28;20089;-70
2023/03/31 01:09:40;;;;;;;18.88;6.18;;;13.00;99.90;;;13.30;99.20;99978.19;4992136;28;20050;-70
2023/03/31 01:12:11;;;;;;;21.40;6.25;;;13.00;99.90;;;13.29;99.30;99965.84;4993306;28;20077;-70
2023/03/31 01:14:39;;;;;;;23.35;6.97;;;13.00;99.90;;;13.22;99.81;99965.13;4993614;28;20085;-70
2023/03/31 01:17:09;;;;;;;21.40;7.13;;;13.00;99.90;;;13.17;100.00;99935.19;4993449;28;20137;-70
2023/03/31 01:19:53;;;;;;;18.30;6.78;;;12.90;99.90;;;13.23;100.00;99950.97;4991936;28;20054;-70
2023/03/31 01:22:58;;;;;;;27.85;8.05;;;13.00;99.90;;;13.04;100.00;99904.63;4991823;28;20085;-70
2023/03/31 01:26:19;;;;;;;19.42;6.47;;;12.90;99.90;;;13.10;100.00;99927.47;4993287;28;20049;-70
2023/03/31 01:28:59;;;;;;;25.60;7.72;;;12.80;99.90;;;13.06;100.00;99908.13;4991779;28;20496;-70
2023/03/31 01:32:06;;;;;;;23.95;7.00;;;12.80;99.90;;;13.04;100.00;99907.28;4993280;28;20113;-70
2023/03/31 01:35:10;;;;;;;23.08;7.28;;;12.80;99.90;;;13.08;100.00;99918.69;4996861;28;20092;-69
2023/03/31 01:38:12;;;;;;;27.83;7.45;;;12.80;99.90;;;13.05;100.00;99892.22;4996892;28;20046;-70
2023/03/31 01:41:18;;;;;;;22.25;6.90;;;12.80;99.90;;;13.03;100.00;99881.63;4996514;28;20129;-69
2023/03/31 01:43:54;;;;;;;22.38;6.22;;;12.80;99.90;;;13.08;100.00;99879.75;4980775;28;20145;-70
2023/03/31 01:46:29;;;;;;;22.80;7.30;;;12.80;99.90;;;13.05;100.00;99879.81;4996381;28;20065;-70
2023/03/31 01:49:08;;;;;;;24.50;7.10;;;12.80;99.90;;;13.04;100.00;99862.16;4996757;28;20049;-69
2023/03/31 01:51:47;;;;;;;19.45;6.57;;;12.70;99.90;;;12.93;100.00;99850.09;4996699;28;20054;-69
2023/03/31 01:54:22;;;;;;;19.48;6.95;;;12.70;99.90;;;12.94;100.00;99850.03;4996698;28;20050;-69
2023/03/31 01:56:55;;;;;;;25.13;7.20;;;12.70;99.90;;;13.03;100.00;99848.88;4996418;28;20050;-69
2023/03/31 01:59:28;;;;;;;16.70;6.55;;;12.70;99.90;;;13.11;100.00;99829.19;4996858;28;20046;-69
2023/03/31 02:02:02;;;;;;;20.63;6.90;;;12.90;99.90;;;13.07;100.00;99822.22;4996294;28;20070;-69
2023/03/31 02:04:36;;;;;;;22.10;7.15;;;12.80;99.90;;;13.13;100.00;99823.81;4995195;28;20074;-70
2023/03/31 02:07:10;;;;;;;25.48;7.63;;;12.80;99.90;;;13.11;100.00;99823.88;4996174;28;20488;-69
2023/03/31 02:09:45;;;;;;;25.98;7.40;;;12.90;99.90;;;13.09;100.00;99803.59;4996678;28;20509;-69
2023/03/31 02:12:17;;;;;;;24.75;7.63;;;12.90;99.90;;;13.07;100.00;99795.69;4994636;28;20388;-69
2023/03/31 02:14:48;;;;;;;24.75;8.30;;;12.80;99.90;;;12.85;100.00;99756.56;4996294;28;20081;-69
2023/03/31 02:17:21;;;;;;;24.80;8.52;;;12.80;99.90;;;12.85;100.00;99784.00;4996239;28;20038;-70
2023/03/31 02:19:54;;;;;;;22.67;6.78;;;12.70;99.90;;;12.74;100.00;99782.59;4994932;28;20069;-69
2023/03/31 02:22:26;;;;;;;20.80;7.88;;;12.60;99.90;;;12.75;100.00;99765.72;4995787;28;20043;-69
2023/03/31 02:24:56;;;;;;;18.08;6.55;;;12.60;99.90;;;12.73;100.00;99763.13;4996417;28;20042;-70
2023/03/31 02:27:27;;;;;;;24.15;7.88;;;12.50;99.90;;;12.76;100.00;99748.88;4995961;28;20050;-69
2023/03/31 02:29:56;;;;;;;18.08;7.28;;;12.60;99.90;;;12.79;100.00;99754.09;4994715;28;20043;-69
2023/03/31 02:32:32;;;;;;;26.20;7.75;;;12.60;99.90;;;12.75;100.00;99748.03;4995888;28;20061;-69
2023/03/31 02:35:00;;;;;;;17.30;7.25;;;12.50;99.90;;;12.79;100.00;99744.38;4994596;28;20049;-70
2023/03/31 02:37:30;;;;;;;21.88;7.47;;;12.50;99.90;;;12.65;100.00;99704.13;4994599;28;20373;-69
2023/03/31 02:40:09;;;;;;;18.25;8.23;;;12.50;99.90;;;12.59;100.00;99706.97;4995550;28;20046;-69
2023/03/31 02:42:40;;;;;;;25.52;7.85;;;12.40;99.90;;;12.74;100.00;99730.38;4994467;28;20129;-70
2023/03/31 02:45:42;;;;;;;17.10;7.25;;;12.50;99.90;;;12.51;100.00;99690.41;4994688;28;20500;-70
2023/03/31 02:48:16;;;;;;;23.77;7.07;;;12.40;99.90;;;12.63;100.00;99698.00;4994476;28;20080;-70
2023/03/31 02:51:38;;;;;;;22.38;7.55;;;12.40;99.90;;;12.55;100.00;99676.16;4994314;28;20079;-70
2023/03/31 02:54:35;;;;;;;21.63;6.43;;;12.30;99.90;;;12.51;100.00;99683.34;4954212;29;20051;-70
2023/03/31 02:57:32;;;;;;;18.88;6.70;;;12.30;99.90;;;12.44;100.00;99672.97;4993248;28;20495;-70
2023/03/31 03:00:15;;;;;;;16.30;5.43;;;12.30;99.90;;;12.28;100.00;99666.41;4994198;28;20137;-69
2023/03/31 03:03:07;;;;;;;15.38;4.93;;;12.20;99.90;;;12.27;100.00;99675.28;4994025;28;20145;-69
2023/03/31 03:05:44;;;;;;;8.40;4.38;;;12.20;99.90;;;12.09;100.00;99658.16;4993974;28;20054;-69
2023/03/31 03:08:54;;;;;;;9.60;4.20;;;11.90;99.90;;;12.16;100.00;99656.16;4995582;28;20069;-69
2023/03/31 03:11:31;;;;;;;11.13;4.82;;;11.90;99.90;;;12.23;100.00;99633.88;4993796;28;20058;-69
2023/03/31 03:14:06;;;;;;;10.02;4.85;;;12.00;99.90;;;12.13;100.00;99627.13;4993904;28;20448;-69
2023/03/31 03:16:41;;;;;;;10.50;4.40;;;11.90;99.90;;;12.10;100.00;99617.47;4995085;28;20038;-69
2023/03/31 03:19:10;;;;;;;13.75;5.10;;;11.90;99.90;;;12.05;100.00;99623.81;4994882;28;20488;-69
2023/03/31 03:21:39;;;;;;;12.65;4.30;;;11.80;99.90;;;11.95;100.00;99612.63;4994545;28;20044;-69
2023/03/31 03:24:08;;;;;;;11.05;4.55;;;11.80;99.90;;;11.77;100.00;99592.84;4995202;28;20049;-69
2023/03/31 03:26:36;;;;;;;10.05;4.32;;;11.60;99.90;;;11.70;100.00;99590.44;4995497;28;20042;-69
2023/03/31 03:29:05;;;;;;;13.13;5.05;;;11.60;99.90;;;11.73;100.00;99579.75;4994567;28;20073;-69
2023/03/31 03:31:33;;;;;;;13.63;4.32;;;11.60;99.90;;;11.69;100.00;99563.06;4995095;28;20130;-69
2023/03/31 03:34:03;;;;;;;11.75;5.20;;;11.60;99.90;;;11.64;100.00;99553.50;4994710;28;20073;-69
2023/03/31 03:36:31;;;;;;;13.17;5.00;;;11.50;99.90;;;11.60;100.00;99551.84;4994419;28;20077;-69
2023/03/31 03:39:00;;;;;;;13.43;4.97;;;11.50;99.90;;;11.72;100.00;99548.88;4993335;28;20089;-69
2023/03/31 03:41:28;;;;;;;13.50;5.78;;;11.50;99.90;;;11.68;100.00;99534.00;4994567;28;20046;-69
2023/03/31 03:43:56;;;;;;;15.10;5.50;;;11.50;99.90;;;11.57;100.00;99555.50;4993501;28;20236;-69
2023/03/31 03:46:24;;;;;;;16.90;6.80;;;11.50;99.90;;;11.56;100.00;99536.97;4994555;28;20049;-69
2023/03/31 03:48:53;;;;;;;19.73;7.35;;;11.40;99.90;;;11.44;100.00;99532.91;4994256;28;20487;-69
2023/03/31 03:51:23;;;;;;;21.65;8.23;;;11.30;99.90;;;11.50;100.00;99540.66;4994165;28;20049;-69
2023/03/31 03:53:51;;;;;;;13.52;6.65;;;11.30;99.90;;;11.53;100.00;99506.19;4994159;28;20051;-69
2023/03/31 03:56:20;;;;;;;17.73;7.20;;;11.30;99.90;;;11.61;100.00;99495.34;4993961;28;20100;-69
2023/03/31 03:58:49;;;;;;;20.27;7.70;;;11.50;99.90;;;11.73;100.00;99485.25;4994550;28;20046;-69
2023/03/31 04:01:18;;;;;;;20.10;8.10;;;11.60;99.90;;;11.74;100.00;99481.72;4994029;28;20046;-69
2023/03/31 04:03:46;;;;;;;22.05;8.02;;;11.60;99.90;;;11.87;100.00;99494.53;4993786;28;20046;-69
2023/03/31 04:06:15;;;;;;;16.48;7.85;;;11.70;99.90;;;11.65;100.00;99454.63;4993872;28;20077;-69
2023/03/31 04:08:44;;;;;;;20.17;8.00;;;11.70;99.90;;;11.79;100.00;99477.13;4993880;28;20038;-69
2023/03/31 04:11:16;;;;;;;21.35;7.95;;;11.70;99.90;;;11.83;100.00;99463.81;4993851;28;20058;-69
2023/03/31 04:13:47;;;;;;;20.17;8.20;;;11.70;99.90;;;11.80;100.00;99462.09;4994099;28;20046;-69
2023/03/31 04:16:16;;;;;;;21.13;8.05;;;11.70;99.90;;;11.71;100.00;99426.16;4993999;28;20046;-69
2023/03/31 04:18:44;;;;;;;26.15;8.57;;;11.60;99.90;;;11.87;100.00;99441.56;4993770;28;20408;-69
2023/03/31 04:21:21;;;;;;;20.85;8.18;;;11.70;99.90;;;11.78;100.00;99446.28;4993855;28;20476;-69
2023/03/31 04:24:00;;;;;;;17.13;7.28;;;11.60;99.90;;;11.75;100.00;99414.56;4993869;28;20042;-69
2023/03/31 04:26:37;;;;;;;16.63;7.60;;;11.60;99.90;;;11.74;100.00;99425.22;4993626;28;20539;-69
2023/03/31 04:29:06;;;;;;;18.23;7.72;;;11.60;99.90;;;11.77;100.00;99423.31;4993606;28;20039;-69
2023/03/31 04:31:37;;;;;;;19.60;7.13;;;11.60;99.90;;;11.70;100.00;99407.69;4993458;28;20038;-69
2023/03/31 04:34:11;;;;;;;19.13;7.43;;;11.60;99.90;;;11.78;100.00;99406.53;4993520;28;20049;-70
2023/03/31 04:36:45;;;;;;;16.83;7.05;;;11.60;99.90;;;11.82;100.00;99411.72;4993800;28;20088;-70
2023/03/31 04:39:23;;;;;;;15.65;7.30;;;11.70;99.90;;;11.84;100.00;99394.00;4993444;28;20043;-69
2023/03/31 04:41:51;;;;;;;13.30;6.53;;;11.70;99.90;;;11.99;100.00;99397.00;4993347;28;20053;-69
2023/03/31 04:44:19;;;;;;;14.68;6.18;;;11.80;99.90;;;11.99;100.00;99406.72;4993290;28;20047;-69
2023/03/31 04:46:48;;;;;;;14.40;6.50;;;11.80;99.90;;;12.05;100.00;99388.84;4993337;28;20857;-69
2023/03/31 04:49:16;;;;;;;15.73;5.75;;;11.90;99.90;;;12.16;100.00;99384.03;4993531;28;20046;-69
2023/03/31 04:51:45;;;;;;;12.93;5.07;;;11.90;99.90;;;12.08;100.00;99379.94;4993204;28;20042;-69
2023/03/31 04:54:13;;;;;;;13.10;5.43;;;11.90;99.90;;;12.10;100.00;99365.69;4993199;28;20047;-69
2023/03/31 04:56:43;;;;;;;10.98;5.45;;;12.00;99.90;;;12.11;100.00;99370.09;4993433;28;20543;-69
2023/03/31 04:59:11;;;;;;;10.75;4.90;;;12.00;99.90;;;12.12;100.00;99357.69;4993463;28;20116;-69
2023/03/31 05:01:44;;;;;;;12.68;4.95;;;11.90;99.90;;;12.12;100.00;99350.59;4993459;28;20086;-69
2023/03/31 05:04:13;;;;;;;13.88;5.60;;;12.00;99.90;;;12.13;100.00;99349.69;4993019;28;20066;-69
2023/03/31 05:06:41;;;;;;;10.00;4.65;;;12.00;99.90;;;12.28;100.00;99332.38;4993093;28;20042;-69
2023/03/31 05:09:09;;;;;;;10.50;5.43;;;12.10;99.90;;;12.26;100.00;99358.94;4996372;28;20089;-69
2023/03/31 05:11:38;;;;;;;8.65;4.00;;;12.10;99.90;;;12.06;100.00;99340.22;4996864;28;20046;-69
2023/03/31 05:14:07;;;;;;;5.63;4.18;;;11.90;99.90;;;12.19;100.00;99351.25;4997245;28;20047;-71
2023/03/31 05:16:36;;;;;;;7.65;4.35;;;12.00;99.90;;;12.21;100.00;99326.44;4997310;28;20044;-70
2023/03/31 05:19:04;;;;;;;11.77;4.63;;;12.00;99.90;;;12.12;100.00;99323.22;4996975;28;20061;-70
2023/03/31 05:21:33;;;;;;;10.80;4.93;;;12.00;99.90;;;12.16;100.00;99336.31;4997137;28;20125;-70
2023/03/31 05:24:02;;;;;;;7.82;4.53;;;12.00;99.90;;;12.20;100.00;99326.47;4996850;28;20512;-70
2023/03/31 05:26:30;;;;;;;11.82;4.70;;;12.00;99.90;;;12.15;100.00;99320.47;4997134;28;20404;-70
2023/03/31 05:28:59;;;;;;;9.80;4.15;;;11.90;99.90;;;12.13;100.00;99322.31;4996773;28;20034;-70
2023/03/31 05:31:29;;;;;;;7.40;4.45;;;11.90;99.90;;;12.20;100.00;99347.69;4996788;28;20046;-71
2023/03/31 05:33:57;;;;;;;8.88;4.05;;;12.00;99.90;;;12.21;100.00;99322.91;4997031;28;20053;-70
2023/03/31 05:36:25;;;;;;;9.30;4.65;;;12.00;99.90;;;12.22;100.00;99325.50;4996667;28;20042;-70
2023/03/31 05:38:54;;;;;;;7.60;4.07;;;12.00;99.90;;;12.16;100.00;99279.78;4996965;28;20042;-71
2023/03/31 05:41:22;;;;;;;4.95;4.03;;;12.10;99.90;;;12.24;100.00;99321.00;4996916;28;20046;-70
2023/03/31 05:43:51;;;;;;;7.78;3.35;;;12.10;99.90;;;12.29;100.00;99284.59;4996537;28;20550;-70
2023/03/31 05:46:19;;;;;;;8.63;4.22;;;12.10;99.90;;;12.28;100.00;99296.13;4995530;28;20125;-71
2023/03/31 05:48:49;;;;;;;7.22;3.92;;;12.10;99.90;;;12.29;100.00;99284.59;4997068;28;20073;-71
2023/03/31 05:51:17;;;;;;;6.07;3.80;;;12.10;99.90;;;12.27;100.00;99293.53;4996480;28;20043;-71
2023/03/31 05:53:45;;;;;;;7.30;3.65;;;12.10;99.90;;;12.13;100.00;99271.97;4996638;28;20053;-71
2023/03/31 05:56:14;;;;;;;6.50;3.45;;;12.00;99.90;;;12.29;100.00;99310.25;4996347;28;20046;-71
2023/03/31 05:58:42;;;;;;;6.30;3.55;;;12.00;99.90;;;12.30;100.00;99296.06;4996533;28;20038;-71
2023/03/31 06:01:18;;;;;;;6.40;3.72;;;12.10;99.90;;;12.35;100.00;99294.97;4996565;28;20125;-70
2023/03/31 06:03:48;;;;;;;6.45;4.28;;;12.10;99.90;;;12.29;100.00;99292.53;4996177;28;20043;-70
2023/03/31 06:06:16;;;;;;;6.87;3.77;;;12.00;99.90;;;12.26;100.00;99292.66;4996614;28;20050;-70
2023/03/31 06:08:47;;;;;;;6.22;3.78;;;12.00;99.90;;;12.27;100.00;99261.72;4995950;28;20117;-70
2023/03/31 06:11:20;;;;;;;7.03;4.07;;;12.00;99.90;;;12.24;100.00;99275.94;4996135;28;20085;-70
2023/03/31 06:13:49;;;;;;;8.23;4.57;;;12.00;99.90;;;12.18;100.00;99278.81;4996084;28;20047;-70
2023/03/31 06:16:18;;;;;;;6.60;3.88;;;11.90;99.90;;;12.29;100.00;99270.50;4996439;28;20161;-70
2023/03/31 06:18:50;;;;;;;6.27;4.13;;;12.00;99.90;;;12.20;100.00;99270.81;4995825;28;20097;-70
2023/03/31 06:21:20;;;;;;;8.85;3.97;;;12.00;99.90;;;12.26;100.00;99274.13;4996207;28;20317;-70
2023/03/31 06:23:49;;;;;;;8.65;4.47;;;12.00;99.90;;;12.31;100.00;99261.53;4996139;28;20047;-70
2023/03/31 06:26:19;;;;;;;10.35;4.88;;;12.00;99.90;;;12.35;100.00;99263.16;4996572;28;20049;-70
2023/03/31 06:28:47;;;;;;;11.88;4.85;;;12.10;99.90;;;12.38;100.00;99264.84;4995818;28;20066;-70
2023/03/31 06:31:18;;;;;;;8.95;4.50;;;12.10;99.90;;;12.23;100.00;99258.31;4995990;28;20089;-70
2023/03/31 06:33:48;;;;;;;10.57;4.45;;;12.10;99.90;;;12.16;100.00;99247.97;4995995;28;20100;-70
2023/03/31 06:36:19;;;;;;;13.27;5.22;;;12.10;99.90;;;12.21;100.00;99259.31;4995698;28;20074;-70
2023/03/31 06:38:49;;;;;;;15.02;4.95;;;12.00;99.90;;;12.10;100.00;99264.13;4995628;28;20104;-70
2023/03/31 06:41:21;;;;;;;11.43;5.03;;;11.90;99.90;;;12.05;100.00;99231.63;4995742;28;20043;-70
2023/03/31 06:43:49;;;;;;;11.40;5.20;;;11.90;99.90;;;12.17;100.00;99236.47;4995750;28;20041;-70
2023/03/31 06:46:18;;;;;;;12.73;5.18;;;11.90;99.90;;;12.14;100.00;99241.88;4995412;28;20050;-69
2023/03/31 06:48:48;;;;;;;15.02;5.93;;;12.00;99.90;;;12.16;100.00;99240.03;4995695;28;20047;-67
2023/03/31 06:51:17;;;;;;;12.75;5.45;;;11.90;99.90;;;12.14;100.00;99268.38;4995400;28;20038;-66
2023/03/31 06:53:45;;;;;;;10.70;4.97;;;11.90;99.90;;;12.24;100.00;99248.56;4995194;28;20104;-68
2023/03/31 06:56:13;;;;;;;10.45;5.30;;;12.00;99.90;;;12.28;100.00;99234.28;4995551;28;20043;-68
2023/03/31 06:58:42;;;;;;;10.75;5.60;;;12.00;99.90;;;12.32;100.00;99220.00;4995536;28;20129;-68
2023/03/31 07:01:10;;;;;;;10.80;5.32;;;12.10;99.90;;;12.42;100.00;99235.50;4995134;28;20121;-69
2023/03/31 07:03:39;;;;;;;15.02;5.97;;;12.20;99.90;;;12.43;100.00;99246.97;4995098;28;20042;-69
2023/03/31 07:06:10;;;;;;;13.82;6.20;;;12.20;99.90;;;12.39;100.00;99237.38;4994945;28;20121;-71
2023/03/31 07:08:39;;;;;;;13.48;6.18;;;12.20;99.90;;;12.39;100.00;99222.34;4995173;28;20400;-70
2023/03/31 07:11:07;;;;;;;13.50;6.15;;;12.20;99.90;;;12.49;100.00;99212.25;4995087;28;20137;-69
2023/03/31 07:13:37;;;;;;;14.07;6.40;;;12.20;99.90;;;12.58;100.00;99214.56;4994950;28;20109;-70
2023/03/31 07:16:06;;;;;;;17.98;7.03;;;12.30;99.90;;;12.54;100.00;99242.97;4993840;28;20480;-69
2023/03/31 07:18:36;;;;;;;15.98;6.82;;;12.30;99.90;;;12.52;100.00;99214.81;4995794;28;20427;-69
2023/03/31 07:21:10;;;;;;;13.30;6.43;;;12.30;99.90;;;12.59;100.00;99208.31;4994900;28;20069;-69
2023/03/31 07:23:39;;;;;;;15.15;6.82;;;12.30;99.90;;;12.65;100.00;99219.56;4994761;28;20046;-69
2023/03/31 07:26:07;;;;;;;17.65;7.38;;;12.40;99.90;;;12.59;100.00;99216.28;4994819;28;20048;-67
2023/03/31 07:28:36;;;;;;;21.02;7.43;;;12.40;99.90;;;12.63;100.00;99213.47;4994889;28;20047;-68
2023/03/31 07:31:12;;;;;;;19.13;7.72;;;12.40;99.90;;;12.61;100.00;99209.13;4994358;28;20038;-68
2023/03/31 07:33:41;;;;;;;18.40;7.57;;;12.40;99.90;;;12.71;100.00;99197.25;4995095;28;20053;-69
2023/03/31 07:36:11;;;;;;;21.10;7.55;;;12.40;99.90;;;12.78;100.00;99190.75;4993745;28;20038;-69
2023/03/31 07:38:44;;;;;;;19.45;7.05;;;12.50;99.90;;;12.84;100.00;99198.47;4995126;28;20046;-70
2023/03/31 07:41:15;;;;;;;18.00;7.63;;;12.60;99.90;;;12.85;100.00;99186.94;4994550;28;20039;-69
2023/03/31 07:43:44;;;;;;;20.75;7.68;;;12.70;99.90;;;12.79;100.00;99186.31;4994405;28;20121;-68
2023/03/31 07:46:18;;;;;;;23.33;7.05;;;12.60;99.90;;;12.84;100.00;99198.47;4993402;28;20057;-68
2023/03/31 07:48:47;;;;;;;18.50;7.43;;;12.60;99.90;;;12.95;100.00;99190.94;4994504;28;20058;-67
2023/03/31 07:51:20;;;;;;;19.92;7.38;;;12.70;99.90;;;13.00;100.00;99185.44;4994676;28;20042;-69
2023/03/31 07:53:51;;;;;;;16.60;7.00;;;12.70;99.90;;;13.12;100.00;99188.50;4994544;28;20049;-68
2023/03/31 07:56:21;;;;;;;20.15;6.80;;;12.90;99.90;;;13.14;100.00;99189.28;4994573;28;20391;-69
2023/03/31 07:58:50;;;;;;;15.83;6.40;;;12.90;99.90;;;13.11;100.00;99176.13;4993071;28;20153;-69
2023/03/31 08:01:20;;;;;;;18.08;6.57;;;12.90;99.90;;;13.13;100.00;99184.03;4994380;28;20281;-69
2023/03/31 08:03:51;;;;;;;23.55;7.40;;;12.90;99.90;;;13.17;100.00;99172.38;4993970;28;20077;-69
2023/03/31 08:06:23;;;;;;;16.48;6.32;;;12.90;99.90;;;13.15;100.00;99161.81;4994102;28;20038;-70
2023/03/31 08:08:52;;;;;;;22.23;6.78;;;12.90;99.90;;;13.26;100.00;99159.56;4994558;28;20125;-70
2023/03/31 08:11:20;;;;;;;19.48;6.88;;;13.00;99.90;;;13.29;100.00;99167.41;4993899;28;20054;-69
2023/03/31 08:13:50;;;;;;;22.27;6.90;;;13.00;99.90;;;13.23;99.97;99164.13;4993875;28;20415;-69
2023/03/31 08:16:18;;;;;;;22.33;8.02;;;13.00;99.90;;;13.26;99.93;99161.34;4993821;28;20056;-69
2023/03/31 08:18:47;;;;;;;20.58;7.18;;;13.00;99.90;;;13.22;100.00;99157.97;4993797;28;20381;-69
2023/03/31 08:21:15;;;;;;;22.83;7.28;;;13.00;99.90;;;13.11;100.00;99162.00;4994199;28;20042;-69
2023/03/31 08:23:45;;;;;;;23.10;6.95;;;12.90;99.90;;;13.09;100.00;99135.53;4993657;28;20097;-69
2023/03/31 08:26:18;;;;;;;25.67;7.97;;;12.90;99.90;;;13.15;100.00;99145.00;4993730;28;20508;-69
2023/03/31 08:28:48;;;;;;;26.25;7.78;;;12.90;99.90;;;13.01;100.00;99129.63;4993712;28;20118;-72
2023/03/31 08:31:19;;;;;;;27.42;7.45;;;12.80;99.90;;;13.09;100.00;99142.63;4994034;28;20558;-69
2023/03/31 08:33:48;;;;;;;29.42;8.82;;;12.80;99.90;;;13.02;100.00;99118.13;4993873;28;20043;-68
2023/03/31 08:36:16;;;;;;;29.63;8.85;;;12.80;99.90;;;13.06;100.00;99124.19;4993511;28;20456;-68
2023/03/31 08:38:46;;;;;;;25.75;8.98;;;12.80;99.90;;;13.06;100.00;99133.00;4992432;28;20465;-68
2023/03/31 08:41:47;;;;;;;28.58;8.02;;;12.80;99.90;;;13.12;100.00;99111.53;4993805;28;20070;-68
2023/03/31 08:44:22;;;;;;;36.40;8.75;;;12.90;99.90;;;13.25;100.00;99112.72;4993012;28;20052;-69
2023/03/31 08:46:52;;;;;;;28.02;8.55;;;13.00;99.90;;;13.22;100.00;99131.41;4994021;28;20056;-69
2023/03/31 08:49:22;;;;;;;23.13;7.78;;;13.00;99.90;;;13.24;100.00;99112.78;4993717;28;20081;-69
2023/03/31 08:51:54;;;;;;;34.50;8.15;;;13.00;99.90;;;13.27;100.00;99112.63;4993470;28;20049;-68
2023/03/31 08:54:33;;;;;;;30.70;8.07;;;13.00;99.90;;;13.31;100.00;99131.03;4993700;28;20051;-71
2023/03/31 08:57:05;;;;;;;23.55;8.25;;;13.10;99.90;;;13.43;100.00;99122.50;4993671;28;20039;-73
2023/03/31 08:59:36;;;;;;;28.85;8.35;;;13.20;99.90;;;13.45;99.67;99111.84;4992266;28;20503;-70
2023/03/31 09:02:19;;;;;;;27.13;7.57;;;13.20;99.90;;;13.39;98.29;99101.50;4993557;28;20464;-67
2023/03/31 09:05:18;;;;;;;26.98;8.15;;;13.20;99.90;;;13.48;97.54;99099.28;4993786;28;20065;-69
2023/03/31 09:07:57;;;;;;;25.20;8.65;;;13.20;99.90;;;13.51;97.07;99101.78;4992419;28;20100;-70
2023/03/31 09:10:45;;;;;;;23.65;8.02;;;13.30;99.90;;;13.47;96.80;99100.19;4993462;28;20056;-68
2023/03/31 09:13:57;;;;;;;21.98;7.25;;;13.30;99.90;;;13.38;96.02;99107.72;4992210;28;20492;-69
2023/03/31 09:16:32;;;;;;;22.45;7.18;;;13.20;99.90;;;13.34;97.03;99096.38;4993325;28;20053;-67
2023/03/31 09:19:02;;;;;;;21.65;7.05;;;13.10;99.90;;;13.34;97.34;99101.69;4993124;28;20117;-68
2023/03/31 09:21:34;;;;;;;22.03;7.87;;;13.10;99.90;;;13.26;97.13;99111.78;4993918;28;20050;-68
2023/03/31 09:24:08;;;;;;;28.58;8.10;;;13.00;99.90;;;13.37;97.59;99087.41;4993132;28;20092;-69
2023/03/31 09:26:42;;;;;;;23.70;7.63;;;13.10;99.90;;;13.40;98.05;99077.50;4993433;28;20498;-69
2023/03/31 09:29:18;;;;;;;25.63;7.57;;;13.10;99.90;;;13.40;97.96;99082.81;4993023;28;20086;-71
2023/03/31 09:31:47;;;;;;;31.30;8.48;;;13.20;99.90;;;13.43;98.19;99093.28;4993028;28;20047;-71
2023/03/31 09:34:24;;;;;;;30.27;8.82;;;13.20;99.90;;;13.44;99.05;99073.78;4992987;28;20042;-70
2023/03/31 09:36:52;;;;;;;31.90;8.45;;;13.20;99.90;;;13.38;99.26;99081.16;4991970;28;20046;-70
2023/03/31 09:39:21;;;;;;;32.55;9.07;;;13.10;99.90;;;13.37;99.33;99061.72;4993207;28;20457;-70
2023/03/31 09:41:52;;;;;;;26.50;7.95;;;13.10;99.90;;;13.30;99.38;99062.03;4992835;28;20104;-70
2023/03/31 09:44:28;;;;;;;27.02;7.90;;;13.10;99.90;;;13.32;99.56;99068.16;4993164;28;20046;-64
2023/03/31 09:46:58;;;;;;;32.20;8.27;;;13.10;99.90;;;13.14;100.00;99092.88;4993004;28;20069;-68
2023/03/31 09:49:29;;;;;;;25.40;7.87;;;13.00;99.90;;;13.14;100.00;99068.97;4992825;28;20050;-68
2023/03/31 09:52:02;;;;;;;;;;;12.90;99.90;;;13.12;100.00;99042.50;4993312;28;20284;-68
2023/03/31 09:54:37;;;;;;;26.63;7.72;;;12.90;99.90;;;13.04;100.00;99068.53;4994776;28;20295;-68
2023/03/31 09:57:23;;;;;;;32.40;8.18;;;12.80;99.90;;;12.99;100.00;99062.50;4996675;28;20100;-69
2023/03/31 09:59:52;;;;;;;31.35;7.88;;;12.80;99.90;;;12.80;100.00;99026.19;4996419;28;20526;-69
2023/03/31 10:02:36;;;;;;;28.65;7.80;;;12.80;99.90;;;12.98;100.00;99044.88;4996268;28;20035;-66
2023/03/31 10:05:07;;;;;;;27.90;7.53;;;12.70;99.90;;;12.91;100.00;99050.50;4996537;28;20400;-68
2023/03/31 10:07:35;;;;;;;;;;;12.70;99.90;;;12.98;100.00;99079.34;4996605;28;20081;-68
2023/03/31 10:10:10;;;;;;;25.40;7.75;;;12.70;99.90;;;12.97;100.00;99043.13;4996425;28;19926;-68
2023/03/31 10:12:51;;;;;;;24.50;7.53;;;12.70;99.90;;;12.82;100.00;99072.97;4996556;28;20068;-69
2023/03/31 10:15:22;;;;;;;25.50;7.10;;;12.60;99.90;;;12.80;100.00;99048.28;4996371;28;20050;-68
2023/03/31 10:17:51;;;;;;;26.58;7.82;;;12.60;99.90;;;12.82;100.00;99051.75;4996883;28;20384;-68
2023/03/31 10:20:34;;;;;;;28.38;8.13;;;12.60;99.90;;;12.67;100.00;99047.09;4996066;28;20111;-69
2023/03/31 10:23:06;;;;;;;28.17;7.07;;;12.50;99.90;;;12.61;100.00;99089.78;4996577;28;20447;-68
2023/03/31 10:25:35;;;;;;;28.83;7.18;;;12.40;99.90;;;12.54;100.00;99051.19;4995917;28;20447;-68
2023/03/31 10:28:05;;;;;;;23.98;7.20;;;12.30;99.90;;;12.62;100.00;99060.53;4996117;28;20042;-68
2023/03/31 10:30:39;;;;;;;19.50;7.67;;;12.30;99.90;;;12.77;100.00;99053.75;4994827;28;20054;-69
2023/03/31 10:33:13;;;;;;;22.75;7.10;;;12.40;99.90;;;12.76;100.00;99038.75;4995788;28;20289;-67